Time;durP1;ratioP1;P1;durP2;ratioP2;P2;SDS_P1;SDS_P2;PMS_P1;PMS_P2;Temp;Humidity;BMP_temperature;BMP_pressure;BME280_temperature;BME280_humidity;BME280_pressure;Samples;Min_cycle;Max_cycle;Signal;HPM_P1;HPM_P2
2022/08/14 00:00:49;;;;;;;14.85;10.55;;;21.60;99.90;;;21.17;100.00;100387.50;4134972;28;20065;-77
2022/08/14 00:02:51;;;;;;;16.48;10.52;;;21.60;99.90;;;21.17;100.00;100370.56;4129037;28;20041;-77
2022/08/14 00:04:51;;;;;;;12.15;10.55;;;21.60;99.90;;;20.96;100.00;100348.63;4128523;28;20030;-77
2022/08/14 00:06:53;;;;;;;14.55;11.35;;;21.60;99.90;;;20.96;100.00;100340.59;4118693;28;20133;-77
2022/08/14 00:08:56;;;;;;;13.57;11.15;;;21.50;99.90;;;21.04;100.00;100352.81;4151098;28;20135;-77
2022/08/14 00:10:59;;;;;;;14.82;10.10;;;21.60;99.90;;;21.01;100.00;100333.69;4134891;28;20037;-77
2022/08/14 00:13:00;;;;;;;18.02;12.13;;;21.60;99.90;;;21.07;100.00;100330.06;4134826;28;20030;-76
2022/08/14 00:15:06;;;;;;;12.50;11.13;;;21.60;99.90;;;21.04;100.00;100322.50;4151430;28;20124;-76
2022/08/14 00:17:07;;;;;;;15.68;11.75;;;21.60;99.90;;;;;;4134649;28;20471;-77
2022/08/14 00:19:09;;;;;;;16.80;11.27;;;21.60;99.90;;;21.18;100.00;100334.63;4130847;28;20026;-77
2022/08/14 00:21:10;;;;;;;16.92;12.85;;;21.60;99.90;;;21.16;100.00;100320.66;4111105;28;20035;-77
2022/08/14 00:23:14;;;;;;;19.63;12.80;;;21.60;99.90;;;21.07;100.00;100322.03;4134544;28;20034;-77
2022/08/14 00:25:15;;;;;;;;;;;21.60;99.90;;;21.02;100.00;100320.06;4124963;28;20074;-77
2022/08/14 00:27:18;;;;;;;15.00;12.90;;;21.60;99.90;;;20.97;100.00;100312.69;4107145;28;19914;-77
2022/08/14 00:29:19;;;;;;;22.33;14.50;;;21.60;99.90;;;21.03;100.00;100316.31;4119496;28;20034;-77
2022/08/14 00:31:21;;;;;;;19.15;15.02;;;21.60;99.90;;;21.03;100.00;100310.94;4151124;28;20041;-77
2022/08/14 00:33:24;;;;;;;18.25;13.07;;;21.60;99.90;;;21.08;100.00;100323.66;4134533;28;20025;-77
2022/08/14 00:35:25;;;;;;;20.58;13.63;;;21.50;99.90;;;21.02;100.00;100319.22;4135960;28;20041;-77
2022/08/14 00:37:28;;;;;;;18.70;13.68;;;21.50;99.90;;;21.06;100.00;100331.94;4118610;28;20027;-77
2022/08/14 00:39:29;;;;;;;17.60;12.65;;;21.50;99.90;;;21.12;100.00;100340.94;4134466;28;20030;-77
2022/08/14 00:41:31;;;;;;;19.52;12.77;;;21.50;99.90;;;;;;4135822;28;20113;-77
2022/08/14 00:43:35;;;;;;;17.48;12.90;;;21.50;99.90;;;20.79;100.00;100310.13;4118851;28;20057;-77
2022/08/14 00:45:36;;;;;;;18.38;12.60;;;21.40;99.90;;;20.75;100.00;100316.22;4135727;28;20022;-77
2022/08/14 00:47:39;;;;;;;17.75;13.18;;;21.30;99.90;;;20.75;100.00;100326.94;4118356;28;20042;-77
2022/08/14 00:49:41;;;;;;;17.45;12.77;;;21.30;99.90;;;20.61;100.00;100317.47;4150854;28;20034;-77
2022/08/14 00:51:44;;;;;;;25.23;12.52;;;21.20;99.90;;;20.65;100.00;100332.84;4118439;28;20039;-77
2022/08/14 00:53:49;;;;;;;15.65;13.13;;;21.20;99.90;;;20.61;100.00;100320.94;4134231;28;20057;-77
2022/08/14 00:55:51;;;;;;;19.50;12.63;;;21.10;99.90;;;20.75;100.00;100354.56;4135668;28;20030;-77
2022/08/14 01:00:14;;;;;;;13.52;11.45;;;21.10;99.90;;;20.57;100.00;100340.41;4135970;28;20104;-77
2022/08/14 01:02:23;;;;;;;18.60;11.25;;;21.10;99.90;;;20.58;100.00;100356.25;4135731;28;20023;-77
2022/08/14 01:04:27;;;;;;;16.58;11.25;;;21.10;99.90;;;20.63;100.00;100363.63;4134481;28;20030;-77
2022/08/14 01:06:30;;;;;;;16.00;10.23;;;21.10;99.90;;;20.63;100.00;100366.31;4135707;28;20033;-77
2022/08/14 01:08:31;;;;;;;13.48;12.07;;;21.10;99.90;;;20.57;100.00;100337.75;4134237;28;20109;-77
2022/08/14 01:10:51;;;;;;;15.07;11.65;;;21.10;99.90;;;20.60;100.00;100340.78;4134289;28;20516;-77
2022/08/14 01:12:53;;;;;;;13.25;9.82;;;21.10;99.90;;;20.68;100.00;100351.16;4134649;28;20030;-77
2022/08/14 01:14:55;;;;;;;15.68;11.20;;;21.10;99.90;;;20.62;100.00;100319.91;4134776;28;20072;-77
2022/08/14 01:16:56;;;;;;;15.88;11.15;;;21.10;99.90;;;20.56;100.00;100325.38;4121402;28;20034;-77
2022/08/14 01:21:38;;;;;;;15.65;10.30;;;21.10;99.90;;;20.64;100.00;100314.34;4122306;28;20178;-77
2022/08/14 01:23:44;;;;;;;16.33;12.23;;;21.00;99.90;;;20.63;100.00;100312.69;4120747;28;20022;-77
2022/08/14 01:25:49;;;;;;;14.75;10.70;;;21.00;99.90;;;20.45;100.00;100294.84;4128168;28;20509;-77
2022/08/14 01:27:54;;;;;;;18.98;12.45;;;21.00;99.90;;;20.44;100.00;100306.59;4122557;28;20034;-77
2022/08/14 01:29:56;;;;;;;19.83;12.15;;;21.00;99.90;;;20.49;100.00;100303.25;4121204;28;20540;-77
2022/08/14 01:32:03;;;;;;;15.95;11.68;;;21.00;99.90;;;20.45;100.00;100302.91;4122020;28;20030;-77
2022/08/14 01:34:05;;;;;;;14.93;10.40;;;21.00;99.90;;;20.48;100.00;100307.78;4122140;28;20077;-77
2022/08/14 01:36:08;;;;;;;13.50;10.05;;;21.00;99.90;;;20.48;100.00;100301.63;4121076;28;20023;-77
2022/08/14 01:38:13;;;;;;;17.33;10.40;;;21.00;99.90;;;20.63;100.00;100326.91;4121686;28;20026;-77
2022/08/14 01:40:14;;;;;;;15.90;11.52;;;21.00;99.90;;;20.65;100.00;100322.13;4120970;28;20121;-77
2022/08/14 01:42:16;;;;;;;13.25;10.50;;;21.00;99.90;;;20.58;100.00;100297.28;4122107;28;20041;-77
2022/08/14 01:44:17;;;;;;;13.43;10.95;;;21.00;99.90;;;20.47;100.00;100295.44;4121907;28;20029;-77
2022/08/14 01:46:23;;;;;;;16.00;11.68;;;21.00;99.90;;;20.63;100.00;100321.56;4121944;28;20030;-77
2022/08/14 01:48:29;;;;;;;17.45;12.30;;;21.00;99.90;;;20.53;100.00;100310.59;4125169;28;20041;-77
2022/08/14 01:50:30;;;;;;;12.77;10.85;;;21.00;99.90;;;20.50;100.00;100305.69;4136740;28;20030;-77
2022/08/14 01:52:37;;;;;;;13.70;9.98;;;21.00;99.90;;;20.69;100.00;100325.19;4138023;28;20146;-77
2022/08/14 01:54:38;;;;;;;19.88;11.43;;;21.00;99.90;;;20.60;100.00;100311.31;4136835;28;20038;-77
2022/08/14 01:56:39;;;;;;;18.52;11.77;;;21.10;99.90;;;20.58;100.00;100317.94;4138044;28;20085;-77
2022/08/14 01:58:47;;;;;;;16.25;10.93;;;21.10;99.90;;;20.66;100.00;100329.13;4152917;28;20477;-77
2022/08/14 02:00:53;;;;;;;20.15;11.32;;;21.00;99.90;;;20.68;100.00;100329.72;4136492;28;20026;-76
2022/08/14 02:02:56;;;;;;;16.88;10.88;;;21.10;99.90;;;20.71;100.00;100325.75;4136757;28;20085;-77
2022/08/14 02:04:57;;;;;;;14.32;10.93;;;21.10;99.90;;;20.63;100.00;100316.19;4136731;28;20559;-77
2022/08/14 02:06:58;;;;;;;14.02;10.50;;;21.10;99.90;;;20.64;100.00;100315.13;4136518;28;20027;-77
2022/08/14 02:09:02;;;;;;;13.93;10.35;;;21.10;99.90;;;20.78;100.00;100342.53;4137320;28;20105;-77
2022/08/14 02:11:23;;;;;;;;;;;21.10;99.90;;;20.73;100.00;100343.22;4138082;28;20034;-77
2022/08/14 02:13:24;;;;;;;19.90;10.90;;;21.10;99.90;;;20.69;100.00;100341.25;4136466;28;19916;-77
2022/08/14 02:15:25;;;;;;;16.30;10.85;;;21.10;99.90;;;20.73;100.00;100353.13;4136332;28;20030;-77
2022/08/14 02:17:28;;;;;;;12.48;9.95;;;21.10;99.90;;;20.62;100.00;100327.13;4152523;28;20053;-77
2022/08/14 02:19:30;;;;;;;13.45;10.43;;;21.10;99.90;;;20.60;100.00;100323.88;4129553;28;20022;-77
2022/08/14 02:21:32;;;;;;;15.85;10.13;;;21.10;99.90;;;20.73;100.00;100345.09;4110397;28;20078;-77
2022/08/14 02:23:33;;;;;;;11.18;9.65;;;21.10;99.90;;;20.71;100.00;100333.78;4135995;28;20103;-77
2022/08/14 02:25:35;;;;;;;13.82;10.63;;;21.10;99.90;;;20.62;100.00;100316.41;4127255;28;20034;-77
2022/08/14 02:27:36;;;;;;;19.58;10.88;;;21.10;99.90;;;20.56;100.00;100294.03;4104141;28;20063;-77
2022/08/14 02:29:37;;;;;;;14.70;11.00;;;21.00;99.90;;;20.67;100.00;100338.78;4130387;28;20022;-77
2022/08/14 02:31:42;;;;;;;14.75;9.43;;;21.00;99.90;;;20.61;100.00;100345.06;4136064;28;20046;-77
2022/08/14 02:33:44;;;;;;;14.52;9.77;;;21.00;99.90;;;20.62;100.00;100346.72;4137443;28;20061;-77
2022/08/14 02:35:45;;;;;;;16.30;11.50;;;21.10;99.90;;;20.52;100.00;100335.75;4120069;28;20090;-77
2022/08/14 02:37:48;;;;;;;15.77;10.68;;;21.00;99.90;;;20.59;100.00;100339.13;4135847;28;20038;-77
2022/08/14 02:39:49;;;;;;;16.88;11.15;;;21.00;99.90;;;20.57;100.00;100325.16;4135872;28;20402;-77
2022/08/14 02:41:51;;;;;;;12.30;9.90;;;21.00;99.90;;;20.54;100.00;100322.13;4137135;28;20026;-77
2022/08/14 02:43:52;;;;;;;19.65;11.90;;;21.10;99.90;;;20.53;100.00;100291.81;4135891;28;20030;-77
2022/08/14 02:45:53;;;;;;;17.92;12.57;;;21.10;99.90;;;20.59;100.00;100325.75;4137021;28;20049;-77
2022/08/14 02:47:56;;;;;;;18.02;12.73;;;21.10;99.90;;;20.49;100.00;100311.28;4136887;28;20026;-77
2022/08/14 02:49:57;;;;;;;17.90;12.82;;;21.00;99.90;;;20.34;100.00;100303.66;4137013;28;20402;-77
2022/08/14 02:51:58;;;;;;;15.45;11.93;;;20.90;99.90;;;20.34;100.00;100304.50;4136916;28;20062;-77
2022/08/14 02:54:00;;;;;;;15.82;12.98;;;20.90;99.90;;;20.39;100.00;100318.03;4136764;28;20026;-77
2022/08/14 02:56:01;;;;;;;17.48;11.82;;;20.90;99.90;;;20.36;100.00;100312.31;4135819;28;20096;-77
2022/08/14 02:58:04;;;;;;;14.50;11.50;;;20.80;99.90;;;20.19;100.00;100306.75;4137198;28;20019;-77
2022/08/14 03:00:06;;;;;;;18.65;12.68;;;20.80;99.90;;;20.13;100.00;100309.56;4135706;28;20034;-77
2022/08/14 03:02:07;;;;;;;16.27;11.85;;;20.70;99.90;;;20.23;100.00;100341.94;4137113;28;20076;-77
2022/08/14 03:04:09;;;;;;;16.17;10.98;;;20.70;99.90;;;20.05;100.00;100324.06;4136746;28;20030;-77
2022/08/14 03:06:12;;;;;;;16.65;12.98;;;20.60;99.90;;;20.19;100.00;100367.56;4136814;28;20493;-77
2022/08/14 03:08:13;;;;;;;21.55;13.98;;;20.60;99.90;;;20.06;100.00;100351.66;4136537;28;20058;-77
2022/08/14 03:10:14;;;;;;;21.95;12.90;;;20.60;99.90;;;20.08;100.00;100360.28;4136589;28;20029;-77
2022/08/14 03:12:15;;;;;;;18.65;13.18;;;20.60;99.90;;;20.11;100.00;100359.81;4136564;28;20486;-77
2022/08/14 03:14:17;;;;;;;18.80;14.23;;;20.60;99.90;;;20.16;100.00;100358.09;4136668;28;20026;-77
2022/08/14 03:16:25;;;;;;;21.05;13.60;;;20.60;99.90;;;20.13;100.00;100355.88;4135448;28;20031;-77
2022/08/14 03:18:27;;;;;;;18.02;13.02;;;20.60;99.90;;;20.13;100.00;100352.41;4136543;28;20100;-77
2022/08/14 03:20:29;;;;;;;17.45;13.60;;;20.60;99.90;;;20.20;100.00;100358.47;4121653;28;20046;-77
2022/08/14 03:22:30;;;;;;;19.77;13.60;;;20.70;99.90;;;20.12;100.00;100342.72;4108267;28;20042;-77
2022/08/14 03:24:31;;;;;;;21.45;15.15;;;20.70;99.90;;;20.10;100.00;100336.78;4136440;28;20076;-77
2022/08/14 03:26:32;;;;;;;18.20;13.02;;;20.60;99.90;;;20.22;100.00;100353.72;4124036;28;20542;-77
2022/08/14 03:28:33;;;;;;;18.40;13.43;;;20.70;99.90;;;20.17;100.00;100342.84;4120462;28;20034;-77
2022/08/14 03:30:36;;;;;;;16.88;13.38;;;20.70;99.90;;;20.14;100.00;100343.31;4119482;28;20066;-77
2022/08/14 03:32:37;;;;;;;18.23;13.43;;;20.70;99.90;;;20.12;100.00;100356.13;4112096;28;20034;-77
2022/08/14 03:34:38;;;;;;;15.32;13.75;;;20.60;99.90;;;20.12;100.00;100345.41;4120550;28;20553;-77
2022/08/14 03:36:39;;;;;;;21.38;14.00;;;20.70;99.90;;;20.07;100.00;100340.72;4119189;28;20050;-77
2022/08/14 03:38:43;;;;;;;18.98;14.15;;;20.70;99.90;;;20.16;100.00;100352.72;4119513;28;20034;-77
2022/08/14 03:40:45;;;;;;;22.48;13.90;;;20.60;99.90;;;20.20;100.00;100355.78;4119165;28;20035;-77
2022/08/14 03:42:48;;;;;;;21.02;13.82;;;20.70;99.90;;;20.13;100.00;100344.38;4120154;28;20411;-77
2022/08/14 03:44:48;;;;;;;21.58;15.80;;;20.70;99.90;;;20.17;100.00;100357.06;4118869;28;20027;-77
2022/08/14 03:46:50;;;;;;;18.92;13.88;;;20.70;99.90;;;20.14;100.00;100354.84;4120183;28;20046;-77
2022/08/14 03:48:53;;;;;;;22.05;14.75;;;20.70;99.90;;;20.22;100.00;100373.25;4120105;28;20034;-77
2022/08/14 03:50:53;;;;;;;13.27;11.90;;;20.70;99.90;;;20.17;100.00;100364.28;4119139;28;20034;-77
2022/08/14 03:52:55;;;;;;;15.73;12.65;;;20.70;99.90;;;20.15;100.00;100361.00;4118508;28;20054;-77
2022/08/14 03:54:57;;;;;;;16.33;13.32;;;20.70;99.90;;;20.12;100.00;100345.41;4120101;28;20027;-77
2022/08/14 03:56:59;;;;;;;19.50;15.00;;;20.70;99.90;;;20.13;100.00;100347.03;4120015;28;20027;-77
2022/08/14 03:59:04;;;;;;;18.42;14.95;;;20.70;99.90;;;20.13;100.00;100358.56;4120266;28;20105;-77
2022/08/14 04:01:04;;;;;;;18.55;15.68;;;20.60;99.90;;;20.08;100.00;100360.28;4118446;28;20121;-77
2022/08/14 04:03:11;;;;;;;21.30;15.77;;;20.60;99.90;;;20.16;100.00;100370.69;4120054;28;20053;-77
2022/08/14 04:05:12;;;;;;;19.42;14.68;;;20.60;99.90;;;20.06;100.00;100362.38;4119969;28;20034;-77
2022/08/14 04:07:13;;;;;;;22.23;15.38;;;20.60;99.90;;;20.05;100.00;100371.44;4119956;28;20050;-77
2022/08/14 04:09:14;;;;;;;15.98;14.43;;;20.60;99.90;;;20.08;100.00;100373.66;4118605;28;20031;-77
2022/08/14 04:11:17;;;;;;;18.50;14.75;;;20.60;99.90;;;20.00;100.00;100368.63;4108649;28;20085;-77
2022/08/14 04:13:18;;;;;;;21.70;16.23;;;20.60;99.90;;;19.98;100.00;100368.84;4134829;28;20037;-77
2022/08/14 04:15:20;;;;;;;16.30;13.63;;;20.60;99.90;;;19.98;100.00;100376.09;4136160;28;20378;-77
2022/08/14 04:17:21;;;;;;;19.08;13.63;;;20.60;99.90;;;19.94;100.00;100369.53;4134688;28;21203;-77
2022/08/14 04:19:22;;;;;;;18.42;13.85;;;20.60;99.90;;;20.13;100.00;100408.63;4128956;28;20454;-77
2022/08/14 04:21:28;;;;;;;16.35;13.70;;;20.60;99.90;;;20.15;100.00;100414.56;4129174;28;20026;-77
2022/08/14 04:23:29;;;;;;;18.80;13.75;;;20.60;99.90;;;20.14;100.00;100413.75;4135627;28;20517;-77
2022/08/14 04:25:32;;;;;;;19.05;12.98;;;20.60;99.90;;;20.15;100.00;100422.63;4132700;28;20026;-77
2022/08/14 04:27:34;;;;;;;20.55;14.25;;;20.60;99.90;;;20.07;100.00;100428.28;4119972;28;20131;-77
2022/08/14 04:29:40;;;;;;;21.65;14.10;;;20.50;99.90;;;20.04;100.00;100423.38;4118973;28;20094;-76
2022/08/14 04:31:43;;;;;;;15.20;11.93;;;20.50;99.90;;;20.02;100.00;100425.44;4118443;28;20042;-77
2022/08/14 04:33:44;;;;;;;17.45;14.00;;;20.60;99.90;;;20.06;100.00;100421.28;4119983;28;20081;-77
2022/08/14 04:35:45;;;;;;;18.05;15.10;;;20.50;99.90;;;20.03;100.00;100427.09;4118593;28;20037;-77
2022/08/14 04:45:03;;;;;;;16.77;13.52;;;20.60;99.90;;;20.03;100.00;100422.56;4134087;28;20045;-77
2022/08/14 04:49:24;;;;;;;16.80;12.93;;;20.60;99.90;;;20.04;100.00;100418.81;4120935;28;20038;-77
2022/08/14 04:51:26;;;;;;;17.95;14.52;;;20.60;99.90;;;20.04;100.00;100410.78;4122622;28;20035;-77
2022/08/14 04:53:30;;;;;;;18.42;14.98;;;20.50;99.90;;;20.10;100.00;100417.13;4122529;28;20018;-77
2022/08/14 04:55:32;;;;;;;19.77;14.48;;;20.60;99.90;;;20.05;100.00;100406.25;4121761;28;20058;-77
2022/08/14 04:57:33;;;;;;;20.77;16.00;;;20.50;99.90;;;20.00;100.00;100400.75;4122984;28;20027;-77
2022/08/14 04:59:34;;;;;;;20.63;15.18;;;20.50;99.90;;;19.96;100.00;100410.28;4121744;28;20035;-77
2022/08/14 05:01:35;;;;;;;19.70;15.88;;;20.40;99.90;;;19.96;100.00;100412.97;4112218;28;20023;-77
2022/08/14 05:03:38;;;;;;;15.90;14.25;;;20.40;99.90;;;19.94;100.00;100407.03;4121170;28;20106;-77
2022/08/14 05:05:39;;;;;;;18.70;15.73;;;20.40;99.90;;;19.87;100.00;100402.56;4122642;28;20055;-77
2022/08/14 05:07:41;;;;;;;16.45;14.80;;;20.40;99.90;;;19.88;100.00;100408.75;4125487;28;20037;-77
2022/08/14 05:09:42;;;;;;;15.77;14.18;;;20.30;99.90;;;19.72;100.00;100378.03;4112870;28;20054;-77
2022/08/14 05:11:43;;;;;;;17.00;15.25;;;20.30;99.90;;;19.89;100.00;100416.53;4122298;28;20081;-77
2022/08/14 05:13:45;;;;;;;20.83;16.60;;;20.30;99.90;;;19.72;100.00;100382.56;4121311;28;20022;-77
2022/08/14 05:15:46;;;;;;;22.63;15.90;;;20.30;99.90;;;19.83;100.00;100405.94;4121197;28;20049;-77
2022/08/14 05:17:48;;;;;;;14.82;12.57;;;20.30;99.90;;;19.66;100.00;100386.97;4122245;28;20111;-77
2022/08/14 05:19:49;;;;;;;20.58;14.88;;;20.30;99.90;;;19.67;100.00;100374.41;4122313;28;20085;-77
2022/08/14 05:21:50;;;;;;;17.90;16.10;;;20.30;99.90;;;19.64;100.00;100374.84;4122179;28;20058;-77
2022/08/14 05:23:50;;;;;;;18.83;16.35;;;20.30;99.90;;;19.74;100.00;100386.66;4117172;28;20035;-77
2022/08/14 05:26:02;;;;;;;18.02;13.85;;;20.30;99.90;;;19.87;100.00;100399.06;4128458;28;20050;-77
2022/08/14 05:28:17;;;;;;;17.75;15.65;;;20.30;99.90;;;19.80;100.00;100387.63;4122163;28;20101;-77
2022/08/14 05:30:18;;;;;;;16.15;14.35;;;20.30;99.90;;;19.88;100.00;100395.34;4121950;28;20150;-77
2022/08/14 05:32:20;;;;;;;26.15;17.88;;;20.30;99.90;;;19.86;100.00;100395.56;4122217;28;20027;-77
2022/08/14 05:34:22;;;;;;;21.33;17.60;;;20.30;99.90;;;19.72;100.00;100367.34;4122111;28;20098;-77
2022/08/14 05:36:24;;;;;;;18.60;16.13;;;20.30;99.90;;;19.72;100.00;100364.66;4120997;28;20071;-77
2022/08/14 05:38:28;;;;;;;22.63;16.05;;;20.30;99.90;;;19.83;100.00;100385.31;4120565;28;20055;-77
2022/08/14 05:40:29;;;;;;;16.80;14.98;;;20.30;99.90;;;19.82;100.00;100399.75;4122052;28;20038;-77
2022/08/14 05:42:30;;;;;;;14.10;12.70;;;20.30;99.90;;;19.60;100.00;100371.81;4120717;28;20027;-77
2022/08/14 05:44:31;;;;;;;19.52;13.60;;;20.20;99.90;;;19.69;100.00;100386.50;4116780;28;20147;-76
2022/08/14 05:46:33;;;;;;;22.67;15.90;;;20.20;99.90;;;19.66;100.00;100378.09;4120762;28;20027;-76
2022/08/14 05:48:33;;;;;;;20.38;16.55;;;20.20;99.90;;;19.57;100.00;100369.56;4110986;28;20034;-76
2022/08/14 05:50:36;;;;;;;17.55;15.85;;;20.20;99.90;;;19.61;100.00;100381.47;4121861;28;20078;-76
2022/08/14 05:52:38;;;;;;;18.10;15.67;;;20.20;99.90;;;19.54;100.00;100375.38;4121674;28;20499;-76
2022/08/14 05:54:39;;;;;;;20.00;15.35;;;20.10;99.90;;;19.60;100.00;100382.50;4120348;28;20031;-76
2022/08/14 05:56:39;;;;;;;21.90;17.85;;;20.20;99.90;;;19.71;100.00;100403.16;4136672;28;20034;-76
2022/08/14 05:58:40;;;;;;;22.80;18.50;;;20.10;99.90;;;19.65;100.00;100392.56;4120547;28;20038;-76
2022/08/14 06:00:44;;;;;;;24.45;19.60;;;20.20;99.90;;;19.58;100.00;100376.56;4121073;28;20107;-76
2022/08/14 06:02:45;;;;;;;18.95;15.35;;;20.10;99.90;;;19.63;100.00;100374.03;4121589;28;20474;-76
2022/08/14 06:04:47;;;;;;;19.90;17.77;;;20.10;99.90;;;19.56;100.00;100373.28;4121677;28;20038;-76
2022/08/14 06:06:48;;;;;;;24.23;18.77;;;20.10;99.90;;;19.61;100.00;100369.94;4121597;28;20030;-76
2022/08/14 06:08:48;;;;;;;21.13;18.83;;;20.10;99.90;;;19.66;100.00;100378.94;4120145;28;20501;-76
2022/08/14 06:10:52;;;;;;;22.23;19.88;;;20.10;99.90;;;19.55;100.00;100360.13;4121296;28;20163;-76
2022/08/14 06:12:53;;;;;;;17.50;15.70;;;20.10;99.90;;;19.70;100.00;100374.78;4121524;28;20383;-76
2022/08/14 06:14:54;;;;;;;17.83;16.00;;;20.20;99.90;;;19.62;100.00;100356.31;4121483;28;20046;-76
2022/08/14 06:16:55;;;;;;;19.92;17.98;;;20.20;99.90;;;19.59;100.00;100340.72;4120160;28;20067;-76
2022/08/14 06:18:56;;;;;;;24.92;19.90;;;20.20;99.90;;;19.71;100.00;100360.34;4118763;28;20051;-76
2022/08/14 06:20:57;;;;;;;24.10;19.33;;;20.20;99.90;;;19.64;100.00;100348.91;4120274;28;20053;-76
2022/08/14 06:22:58;;;;;;;22.90;18.55;;;20.20;99.90;;;19.68;100.00;100355.44;4120120;28;20105;-76
2022/08/14 06:24:59;;;;;;;20.73;18.33;;;20.20;99.90;;;19.58;100.00;100339.09;4126538;28;20014;-76
2022/08/14 06:27:00;;;;;;;22.75;20.40;;;20.10;99.90;;;19.57;100.00;100310.72;4121977;28;20035;-76
2022/08/14 06:29:02;;;;;;;21.58;19.42;;;20.10;99.90;;;19.62;100.00;100313.50;4125777;28;20034;-76
2022/08/14 06:31:03;;;;;;;24.88;19.55;;;20.20;99.90;;;19.61;100.00;100306.56;4136079;28;20113;-76
2022/08/14 06:33:04;;;;;;;21.45;19.20;;;20.20;99.90;;;19.58;100.00;100309.69;4136212;28;20033;-76
2022/08/14 06:35:07;;;;;;;24.35;20.98;;;20.20;99.90;;;19.62;100.00;100316.19;4135957;28;20038;-76
2022/08/14 06:37:08;;;;;;;23.60;20.17;;;20.20;99.90;;;19.51;100.00;100297.41;4152225;28;20184;-76
2022/08/14 06:39:09;;;;;;;26.88;21.45;;;20.20;99.90;;;19.56;100.00;100306.38;4135880;28;20038;-76
2022/08/14 06:41:10;;;;;;;24.17;20.85;;;20.20;99.90;;;19.59;100.00;100307.81;4136036;28;20112;-76
2022/08/14 06:43:13;;;;;;;23.67;20.92;;;20.20;99.90;;;19.71;100.00;100317.50;4135279;28;20113;-76
2022/08/14 06:45:14;;;;;;;24.93;22.33;;;20.20;99.90;;;19.72;100.00;100321.84;4120889;28;20192;-76
2022/08/14 06:47:15;;;;;;;24.13;21.60;;;20.20;99.90;;;19.61;100.00;100306.56;4121120;28;20287;-76
2022/08/14 06:49:16;;;;;;;23.95;20.73;;;20.20;99.90;;;19.74;100.00;100319.75;4103854;28;20034;-76
2022/08/14 06:51:17;;;;;;;24.67;21.75;;;20.20;99.90;;;19.60;100.00;100302.22;4120898;28;20033;-76
2022/08/14 06:53:19;;;;;;;23.58;20.00;;;20.20;99.90;;;19.68;100.00;100304.59;4119693;28;20031;-76
2022/08/14 06:55:20;;;;;;;26.77;23.17;;;20.20;99.90;;;19.73;100.00;100315.44;4120777;28;20023;-76
2022/08/14 06:57:21;;;;;;;22.75;20.38;;;20.20;99.90;;;19.64;100.00;100295.41;4120763;28;20031;-76
2022/08/14 06:59:22;;;;;;;30.10;22.98;;;20.20;99.90;;;19.71;100.00;100309.47;4120721;28;20483;-76
2022/08/14 07:06:03;;;;;;;26.27;21.35;;;20.20;99.90;;;19.69;100.00;100292.84;4131379;28;20037;-76
2022/08/14 07:08:04;;;;;;;25.25;22.60;;;20.20;99.90;;;19.72;100.00;100286.22;4136608;28;20092;-77
2022/08/14 07:10:07;;;;;;;25.77;22.90;;;20.20;99.90;;;19.66;100.00;100271.06;4135529;28;20030;-76
2022/08/14 07:12:08;;;;;;;28.20;24.58;;;20.20;99.90;;;19.61;100.00;100257.56;4136395;28;20524;-76
2022/08/14 07:14:09;;;;;;;27.10;23.42;;;20.20;99.90;;;19.64;100.00;100251.75;4136264;28;20018;-76
2022/08/14 07:16:11;;;;;;;28.10;23.15;;;20.30;99.90;;;19.78;100.00;100270.09;4136674;28;20053;-76
2022/08/14 07:18:13;;;;;;;28.00;25.10;;;20.30;99.90;;;19.68;100.00;100242.25;4135328;28;20046;-76
2022/08/14 07:20:17;;;;;;;25.85;22.92;;;20.30;99.90;;;19.61;100.00;100234.31;4122626;28;20482;-77
2022/08/14 07:22:18;;;;;;;27.80;23.38;;;20.30;99.90;;;19.67;100.00;100238.75;4120547;28;20031;-77
2022/08/14 07:24:19;;;;;;;25.10;22.42;;;20.20;99.90;;;19.59;100.00;100223.00;4120401;28;20057;-77
2022/08/14 07:26:20;;;;;;;34.40;25.63;;;20.30;99.90;;;19.66;100.00;100237.09;4109282;28;20051;-77
2022/08/14 07:28:28;;;;;;;26.33;22.95;;;20.30;99.90;;;19.68;100.00;100226.97;4119341;28;20038;-77
2022/08/14 07:30:29;;;;;;;23.90;20.50;;;20.30;99.90;;;19.62;100.00;100216.41;4119486;28;20031;-77
2022/08/14 07:32:30;;;;;;;24.95;20.77;;;20.20;99.90;;;19.67;100.00;100216.53;4120342;28;20027;-76
2022/08/14 07:34:31;;;;;;;23.90;21.17;;;20.20;99.90;;;19.63;100.00;100207.31;4103224;29;20023;-77
2022/08/14 07:36:32;;;;;;;24.70;21.88;;;20.30;99.90;;;19.63;100.00;100215.31;4116613;28;20030;-77
2022/08/14 07:38:34;;;;;;;29.23;22.02;;;20.20;99.90;;;19.68;100.00;100210.91;4111332;28;20030;-76
2022/08/14 07:40:35;;;;;;;26.48;20.88;;;20.30;99.90;;;19.65;100.00;100189.97;4136290;28;20026;-77
2022/08/14 07:42:36;;;;;;;28.63;22.77;;;20.30;99.90;;;19.84;100.00;100204.09;4136267;28;20490;-77
2022/08/14 07:44:37;;;;;;;24.75;20.17;;;20.30;99.90;;;19.75;100.00;100168.00;4135341;28;20030;-77
2022/08/14 07:46:39;;;;;;;29.77;22.15;;;20.30;99.90;;;19.90;100.00;100176.41;4136277;28;20037;-77
2022/08/14 07:48:42;;;;;;;23.63;20.02;;;20.30;99.90;;;19.82;100.00;100142.78;4136422;28;20084;-77
2022/08/14 07:50:44;;;;;;;29.08;21.88;;;20.40;99.90;;;19.90;100.00;100152.31;4118925;28;20031;-76
2022/08/14 07:52:48;;;;;;;26.35;21.20;;;20.40;99.90;;;19.86;100.00;100129.75;4134760;28;20022;-76
2022/08/14 07:54:50;;;;;;;29.13;20.90;;;20.40;99.90;;;19.91;100.00;100129.88;4136266;28;20068;-76
2022/08/14 07:56:50;;;;;;;24.65;19.05;;;20.50;99.90;;;19.84;100.00;100116.59;4136149;28;20041;-76
2022/08/14 07:58:51;;;;;;;23.88;20.73;;;20.50;99.90;;;19.94;100.00;100099.16;4136131;28;20026;-76
2022/08/14 08:00:56;;;;;;;28.13;20.15;;;20.50;99.90;;;20.04;100.00;100112.78;4135960;28;20034;-76
2022/08/14 08:02:58;;;;;;;24.60;20.63;;;20.50;99.90;;;20.04;100.00;100091.34;4136146;28;20045;-77
2022/08/14 08:05:00;;;;;;;26.17;19.83;;;20.60;99.90;;;20.02;100.00;100091.56;4136059;28;20041;-77
2022/08/14 08:07:02;;;;;;;21.63;18.10;;;20.60;99.90;;;20.00;100.00;100100.91;4135976;28;20022;-77
2022/08/14 08:09:03;;;;;;;21.33;17.52;;;20.70;99.90;;;20.07;100.00;100097.03;4135692;28;20041;-77
2022/08/14 08:11:05;;;;;;;25.17;17.00;;;20.70;99.90;;;20.15;100.00;100110.09;4134830;28;20027;-78
2022/08/14 08:13:17;;;;;;;20.65;15.63;;;20.70;99.90;;;20.35;100.00;100117.78;4136003;28;20031;-77
2022/08/14 08:15:19;;;;;;;19.92;16.33;;;20.80;99.90;;;20.39;100.00;100122.47;4135003;28;20587;-78
2022/08/14 08:17:22;;;;;;;18.25;16.02;;;20.80;99.90;;;20.38;100.00;100094.03;4134949;28;20030;-78
2022/08/14 08:19:23;;;;;;;19.65;17.38;;;20.80;99.90;;;20.27;100.00;100080.66;4112755;28;20020;-78
2022/08/14 08:21:25;;;;;;;23.40;17.70;;;20.90;99.90;;;20.33;100.00;100110.00;4119889;28;20046;-78
2022/08/14 08:23:32;;;;;;;19.42;15.75;;;20.80;99.90;;;20.22;100.00;100083.19;4119693;28;20059;-78
2022/08/14 08:25:38;;;;;;;19.65;15.52;;;20.80;99.90;;;20.24;100.00;100099.84;4129112;28;20047;-77
2022/08/14 08:27:39;;;;;;;20.08;16.73;;;20.80;99.90;;;20.23;100.00;100098.19;4129754;28;20093;-78
2022/08/14 08:29:41;;;;;;;18.35;14.77;;;20.70;99.90;;;20.24;100.00;100097.97;4107733;28;31695;-77
2022/08/14 08:31:51;;;;;;;20.70;16.20;;;20.70;99.90;;;20.19;100.00;100105.09;4149872;28;20129;-78
2022/08/14 08:33:53;;;;;;;17.42;15.50;;;20.70;99.90;;;20.07;100.00;100101.59;4121746;28;20034;-78